sensor_id;sensor_type;location;lat;lon;timestamp;P1;durP1;ratioP1;P2;durP2;ratioP2
33152;SDS011;19509;43.862;26.176;2022-09-03T00:05:22;1.60;;;1.60;;
33152;SDS011;19509;43.862;26.176;2022-09-03T00:13:30;1.63;;;1.53;;
33152;SDS011;19509;43.862;26.176;2022-09-03T00:16:00;1.47;;;1.47;;
33152;SDS011;19509;43.862;26.176;2022-09-03T00:18:34;1.40;;;1.40;;
33152;SDS011;19509;43.862;26.176;2022-09-03T00:21:08;1.40;;;1.40;;
33152;SDS011;19509;43.862;26.176;2022-09-03T00:23:39;1.20;;;1.20;;
33152;SDS011;19509;43.862;26.176;2022-09-03T00:28:40;1.50;;;1.50;;
33152;SDS011;19509;43.862;26.176;2022-09-03T00:33:51;1.70;;;1.60;;
33152;SDS011;19509;43.862;26.176;2022-09-03T00:36:25;1.30;;;1.30;;
33152;SDS011;19509;43.862;26.176;2022-09-03T00:38:58;1.47;;;1.47;;
33152;SDS011;19509;43.862;26.176;2022-09-03T00:41:36;1.30;;;1.30;;
33152;SDS011;19509;43.862;26.176;2022-09-03T00:57:53;1.50;;;1.50;;
33152;SDS011;19509;43.862;26.176;2022-09-03T01:00:22;1.70;;;1.60;;
33152;SDS011;19509;43.862;26.176;2022-09-03T01:05:28;1.63;;;1.63;;
33152;SDS011;19509;43.862;26.176;2022-09-03T01:16:59;1.67;;;1.57;;
33152;SDS011;19509;43.862;26.176;2022-09-03T01:25:51;1.43;;;1.43;;
33152;SDS011;19509;43.862;26.176;2022-09-03T01:31:45;1.70;;;1.70;;
33152;SDS011;19509;43.862;26.176;2022-09-03T01:34:22;1.67;;;1.63;;
33152;SDS011;19509;43.862;26.176;2022-09-03T01:37:23;1.53;;;1.43;;
33152;SDS011;19509;43.862;26.176;2022-09-03T01:40:21;1.70;;;1.70;;
33152;SDS011;19509;43.862;26.176;2022-09-03T01:45:32;1.60;;;1.60;;
33152;SDS011;19509;43.862;26.176;2022-09-03T01:48:55;2.00;;;2.00;;
33152;SDS011;19509;43.862;26.176;2022-09-03T01:54:23;1.70;;;1.70;;
33152;SDS011;19509;43.862;26.176;2022-09-03T02:00:04;1.57;;;1.57;;
33152;SDS011;19509;43.862;26.176;2022-09-03T02:02:37;1.50;;;1.50;;
33152;SDS011;19509;43.862;26.176;2022-09-03T02:07:34;1.50;;;1.50;;
33152;SDS011;19509;43.862;26.176;2022-09-03T02:10:05;1.50;;;1.50;;
33152;SDS011;19509;43.862;26.176;2022-09-03T02:12:34;1.60;;;1.60;;
33152;SDS011;19509;43.862;26.176;2022-09-03T02:15:03;1.50;;;1.50;;
33152;SDS011;19509;43.862;26.176;2022-09-03T02:17:34;1.40;;;1.40;;
33152;SDS011;19509;43.862;26.176;2022-09-03T02:20:02;1.50;;;1.50;;
33152;SDS011;19509;43.862;26.176;2022-09-03T02:22:31;1.73;;;1.73;;
33152;SDS011;19509;43.862;26.176;2022-09-03T02:24:58;1.90;;;1.90;;
33152;SDS011;19509;43.862;26.176;2022-09-03T02:27:24;1.60;;;1.60;;
33152;SDS011;19509;43.862;26.176;2022-09-03T02:29:50;1.70;;;1.70;;
33152;SDS011;19509;43.862;26.176;2022-09-03T02:32:15;1.50;;;1.50;;
33152;SDS011;19509;43.862;26.176;2022-09-03T02:34:41;1.40;;;1.40;;
33152;SDS011;19509;43.862;26.176;2022-09-03T02:37:14;2.20;;;1.60;;
33152;SDS011;19509;43.862;26.176;2022-09-03T02:39:42;1.60;;;1.60;;
33152;SDS011;19509;43.862;26.176;2022-09-03T02:42:09;1.40;;;1.40;;
33152;SDS011;19509;43.862;26.176;2022-09-03T02:44:37;1.57;;;1.57;;
33152;SDS011;19509;43.862;26.176;2022-09-03T02:47:08;2.37;;;1.73;;
33152;SDS011;19509;43.862;26.176;2022-09-03T02:49:34;1.60;;;1.60;;
33152;SDS011;19509;43.862;26.176;2022-09-03T02:52:01;1.30;;;1.30;;
33152;SDS011;19509;43.862;26.176;2022-09-03T02:54:33;1.37;;;1.37;;
33152;SDS011;19509;43.862;26.176;2022-09-03T02:57:07;1.40;;;1.40;;
33152;SDS011;19509;43.862;26.176;2022-09-03T02:59:34;1.40;;;1.40;;
33152;SDS011;19509;43.862;26.176;2022-09-03T03:02:00;1.40;;;1.40;;
33152;SDS011;19509;43.862;26.176;2022-09-03T03:04:27;1.20;;;1.20;;
33152;SDS011;19509;43.862;26.176;2022-09-03T03:06:54;1.53;;;1.50;;
33152;SDS011;19509;43.862;26.176;2022-09-03T03:09:20;1.43;;;1.43;;
33152;SDS011;19509;43.862;26.176;2022-09-03T03:11:45;1.40;;;1.40;;
33152;SDS011;19509;43.862;26.176;2022-09-03T03:14:13;1.60;;;1.60;;
33152;SDS011;19509;43.862;26.176;2022-09-03T03:16:39;1.87;;;1.77;;
33152;SDS011;19509;43.862;26.176;2022-09-03T03:19:04;1.50;;;1.50;;
33152;SDS011;19509;43.862;26.176;2022-09-03T03:21:30;1.40;;;1.40;;
33152;SDS011;19509;43.862;26.176;2022-09-03T03:23:55;1.40;;;1.40;;
33152;SDS011;19509;43.862;26.176;2022-09-03T03:26:21;1.37;;;1.37;;
33152;SDS011;19509;43.862;26.176;2022-09-03T03:28:48;1.57;;;1.57;;
33152;SDS011;19509;43.862;26.176;2022-09-03T03:31:20;1.40;;;1.40;;
33152;SDS011;19509;43.862;26.176;2022-09-03T03:33:50;1.60;;;1.60;;
33152;SDS011;19509;43.862;26.176;2022-09-03T03:36:17;1.40;;;1.40;;
33152;SDS011;19509;43.862;26.176;2022-09-03T03:38:43;1.30;;;1.30;;
33152;SDS011;19509;43.862;26.176;2022-09-03T03:41:09;1.37;;;1.37;;
33152;SDS011;19509;43.862;26.176;2022-09-03T03:43:35;1.40;;;1.40;;
33152;SDS011;19509;43.862;26.176;2022-09-03T03:46:01;1.53;;;1.53;;
33152;SDS011;19509;43.862;26.176;2022-09-03T03:48:26;1.50;;;1.40;;
33152;SDS011;19509;43.862;26.176;2022-09-03T03:50:52;1.40;;;1.40;;
33152;SDS011;19509;43.862;26.176;2022-09-03T03:53:17;1.60;;;1.60;;
33152;SDS011;19509;43.862;26.176;2022-09-03T03:55:52;1.53;;;1.53;;
33152;SDS011;19509;43.862;26.176;2022-09-03T03:58:19;1.60;;;1.60;;
33152;SDS011;19509;43.862;26.176;2022-09-03T04:00:45;1.63;;;1.63;;
33152;SDS011;19509;43.862;26.176;2022-09-03T04:03:13;1.50;;;1.50;;
33152;SDS011;19509;43.862;26.176;2022-09-03T04:05:38;1.40;;;1.40;;
33152;SDS011;19509;43.862;26.176;2022-09-03T04:08:04;1.23;;;1.23;;
33152;SDS011;19509;43.862;26.176;2022-09-03T04:10:29;1.23;;;1.23;;
33152;SDS011;19509;43.862;26.176;2022-09-03T04:12:55;1.40;;;1.40;;
33152;SDS011;19509;43.862;26.176;2022-09-03T04:15:20;1.20;;;1.20;;
33152;SDS011;19509;43.862;26.176;2022-09-03T04:17:46;1.40;;;1.40;;
33152;SDS011;19509;43.862;26.176;2022-09-03T04:20:11;1.50;;;1.50;;
33152;SDS011;19509;43.862;26.176;2022-09-03T04:22:37;1.30;;;1.30;;
33152;SDS011;19509;43.862;26.176;2022-09-03T04:25:02;1.90;;;1.80;;
33152;SDS011;19509;43.862;26.176;2022-09-03T04:27:28;1.30;;;1.30;;
33152;SDS011;19509;43.862;26.176;2022-09-03T04:29:53;1.60;;;1.60;;
33152;SDS011;19509;43.862;26.176;2022-09-03T04:32:19;1.50;;;1.50;;
33152;SDS011;19509;43.862;26.176;2022-09-03T04:35:03;1.30;;;1.20;;
33152;SDS011;19509;43.862;26.176;2022-09-03T04:37:28;1.30;;;1.30;;
33152;SDS011;19509;43.862;26.176;2022-09-03T04:39:54;1.60;;;1.60;;
33152;SDS011;19509;43.862;26.176;2022-09-03T04:42:19;1.30;;;1.20;;
33152;SDS011;19509;43.862;26.176;2022-09-03T04:44:45;1.30;;;1.30;;
33152;SDS011;19509;43.862;26.176;2022-09-03T04:47:11;1.13;;;1.13;;
33152;SDS011;19509;43.862;26.176;2022-09-03T04:49:36;1.20;;;1.20;;
33152;SDS011;19509;43.862;26.176;2022-09-03T04:52:04;1.30;;;1.30;;
33152;SDS011;19509;43.862;26.176;2022-09-03T04:54:29;1.20;;;1.20;;
33152;SDS011;19509;43.862;26.176;2022-09-03T04:56:54;1.30;;;1.30;;
33152;SDS011;19509;43.862;26.176;2022-09-03T04:59:20;1.20;;;1.20;;
33152;SDS011;19509;43.862;26.176;2022-09-03T05:01:45;1.47;;;1.40;;
33152;SDS011;19509;43.862;26.176;2022-09-03T05:04:11;1.20;;;1.20;;
33152;SDS011;19509;43.862;26.176;2022-09-03T05:06:36;1.37;;;1.37;;
33152;SDS011;19509;43.862;26.176;2022-09-03T05:09:02;1.47;;;1.47;;
33152;SDS011;19509;43.862;26.176;2022-09-03T05:11:29;1.23;;;1.23;;
33152;SDS011;19509;43.862;26.176;2022-09-03T05:13:56;1.30;;;1.30;;
33152;SDS011;19509;43.862;26.176;2022-09-03T05:16:23;1.50;;;1.50;;
33152;SDS011;19509;43.862;26.176;2022-09-03T05:18:51;1.47;;;1.47;;
33152;SDS011;19509;43.862;26.176;2022-09-03T05:21:18;1.20;;;1.20;;
33152;SDS011;19509;43.862;26.176;2022-09-03T05:23:45;1.30;;;1.30;;
33152;SDS011;19509;43.862;26.176;2022-09-03T05:26:13;1.33;;;1.33;;
33152;SDS011;19509;43.862;26.176;2022-09-03T05:28:40;1.30;;;1.30;;
33152;SDS011;19509;43.862;26.176;2022-09-03T05:31:08;1.33;;;1.33;;
33152;SDS011;19509;43.862;26.176;2022-09-03T05:33:42;1.40;;;1.40;;
33152;SDS011;19509;43.862;26.176;2022-09-03T05:36:13;1.17;;;1.17;;
33152;SDS011;19509;43.862;26.176;2022-09-03T05:38:41;1.27;;;1.27;;
33152;SDS011;19509;43.862;26.176;2022-09-03T05:41:07;1.20;;;1.20;;
33152;SDS011;19509;43.862;26.176;2022-09-03T05:43:35;1.40;;;1.40;;
33152;SDS011;19509;43.862;26.176;2022-09-03T05:46:02;1.20;;;1.20;;
33152;SDS011;19509;43.862;26.176;2022-09-03T05:48:29;1.60;;;1.50;;
33152;SDS011;19509;43.862;26.176;2022-09-03T05:50:57;1.20;;;1.20;;
33152;SDS011;19509;43.862;26.176;2022-09-03T05:53:25;1.30;;;1.30;;
33152;SDS011;19509;43.862;26.176;2022-09-03T05:55:54;1.20;;;1.20;;
33152;SDS011;19509;43.862;26.176;2022-09-03T05:58:24;1.50;;;1.40;;
33152;SDS011;19509;43.862;26.176;2022-09-03T06:00:54;1.20;;;1.20;;
33152;SDS011;19509;43.862;26.176;2022-09-03T06:03:19;1.20;;;1.20;;
33152;SDS011;19509;43.862;26.176;2022-09-03T06:05:53;1.60;;;1.50;;
33152;SDS011;19509;43.862;26.176;2022-09-03T06:08:19;1.47;;;1.47;;
33152;SDS011;19509;43.862;26.176;2022-09-03T06:10:46;1.37;;;1.37;;
33152;SDS011;19509;43.862;26.176;2022-09-03T06:13:12;1.40;;;1.40;;
33152;SDS011;19509;43.862;26.176;2022-09-03T06:15:38;1.30;;;1.30;;
33152;SDS011;19509;43.862;26.176;2022-09-03T06:18:04;1.53;;;1.40;;
33152;SDS011;19509;43.862;26.176;2022-09-03T06:20:29;1.47;;;1.47;;
33152;SDS011;19509;43.862;26.176;2022-09-03T06:22:56;1.47;;;1.47;;
33152;SDS011;19509;43.862;26.176;2022-09-03T06:25:22;1.87;;;1.80;;
33152;SDS011;19509;43.862;26.176;2022-09-03T06:27:48;1.80;;;1.80;;
33152;SDS011;19509;43.862;26.176;2022-09-03T06:30:14;2.30;;;2.20;;
33152;SDS011;19509;43.862;26.176;2022-09-03T06:32:44;2.73;;;2.63;;
33152;SDS011;19509;43.862;26.176;2022-09-03T06:35:10;3.20;;;3.10;;
33152;SDS011;19509;43.862;26.176;2022-09-03T06:37:39;4.00;;;3.87;;
33152;SDS011;19509;43.862;26.176;2022-09-03T06:40:05;3.23;;;3.13;;
33152;SDS011;19509;43.862;26.176;2022-09-03T06:42:33;2.50;;;2.40;;
33152;SDS011;19509;43.862;26.176;2022-09-03T06:44:58;1.57;;;1.57;;
33152;SDS011;19509;43.862;26.176;2022-09-03T06:47:24;1.50;;;1.50;;
33152;SDS011;19509;43.862;26.176;2022-09-03T06:49:49;2.83;;;1.70;;
33152;SDS011;19509;43.862;26.176;2022-09-03T06:52:15;1.50;;;1.50;;
33152;SDS011;19509;43.862;26.176;2022-09-03T06:54:41;1.50;;;1.50;;
33152;SDS011;19509;43.862;26.176;2022-09-03T06:57:06;1.53;;;1.53;;
33152;SDS011;19509;43.862;26.176;2022-09-03T06:59:31;1.63;;;1.53;;
33152;SDS011;19509;43.862;26.176;2022-09-03T07:01:57;1.50;;;1.50;;
33152;SDS011;19509;43.862;26.176;2022-09-03T07:04:24;1.83;;;1.83;;
33152;SDS011;19509;43.862;26.176;2022-09-03T07:06:51;1.63;;;1.63;;
33152;SDS011;19509;43.862;26.176;2022-09-03T07:09:17;1.47;;;1.47;;
33152;SDS011;19509;43.862;26.176;2022-09-03T07:11:43;1.33;;;1.33;;
33152;SDS011;19509;43.862;26.176;2022-09-03T07:14:11;1.60;;;1.60;;
33152;SDS011;19509;43.862;26.176;2022-09-03T07:16:38;1.43;;;1.43;;
33152;SDS011;19509;43.862;26.176;2022-09-03T07:19:05;1.77;;;1.77;;
33152;SDS011;19509;43.862;26.176;2022-09-03T07:21:33;1.63;;;1.63;;
33152;SDS011;19509;43.862;26.176;2022-09-03T07:24:03;1.47;;;1.47;;
33152;SDS011;19509;43.862;26.176;2022-09-03T07:26:30;1.70;;;1.60;;
33152;SDS011;19509;43.862;26.176;2022-09-03T07:28:58;1.30;;;1.30;;
33152;SDS011;19509;43.862;26.176;2022-09-03T07:31:29;1.40;;;1.40;;
33152;SDS011;19509;43.862;26.176;2022-09-03T07:33:57;1.60;;;1.50;;
33152;SDS011;19509;43.862;26.176;2022-09-03T07:36:25;1.43;;;1.43;;
33152;SDS011;19509;43.862;26.176;2022-09-03T07:38:55;1.50;;;1.50;;
33152;SDS011;19509;43.862;26.176;2022-09-03T07:41:23;1.60;;;1.60;;
33152;SDS011;19509;43.862;26.176;2022-09-03T07:43:51;1.60;;;1.50;;
33152;SDS011;19509;43.862;26.176;2022-09-03T07:46:20;1.40;;;1.40;;
33152;SDS011;19509;43.862;26.176;2022-09-03T07:48:55;1.40;;;1.40;;
33152;SDS011;19509;43.862;26.176;2022-09-03T07:51:23;1.63;;;1.63;;
33152;SDS011;19509;43.862;26.176;2022-09-03T07:53:51;1.67;;;1.57;;
33152;SDS011;19509;43.862;26.176;2022-09-03T07:56:18;1.50;;;1.50;;
33152;SDS011;19509;43.862;26.176;2022-09-03T07:58:45;1.50;;;1.50;;
33152;SDS011;19509;43.862;26.176;2022-09-03T08:01:12;1.60;;;1.50;;
33152;SDS011;19509;43.862;26.176;2022-09-03T08:03:45;1.60;;;1.60;;
33152;SDS011;19509;43.862;26.176;2022-09-03T08:06:12;1.60;;;1.60;;
33152;SDS011;19509;43.862;26.176;2022-09-03T08:08:39;1.50;;;1.50;;
33152;SDS011;19509;43.862;26.176;2022-09-03T08:11:09;1.80;;;1.70;;
33152;SDS011;19509;43.862;26.176;2022-09-03T08:13:43;1.77;;;1.67;;
33152;SDS011;19509;43.862;26.176;2022-09-03T08:16:13;1.80;;;1.80;;
33152;SDS011;19509;43.862;26.176;2022-09-03T08:18:41;1.70;;;1.70;;
33152;SDS011;19509;43.862;26.176;2022-09-03T08:21:10;1.53;;;1.53;;
33152;SDS011;19509;43.862;26.176;2022-09-03T08:23:44;2.03;;;1.93;;
33152;SDS011;19509;43.862;26.176;2022-09-03T08:26:11;1.60;;;1.60;;
33152;SDS011;19509;43.862;26.176;2022-09-03T08:28:38;1.70;;;1.70;;
33152;SDS011;19509;43.862;26.176;2022-09-03T08:31:08;1.80;;;1.80;;
33152;SDS011;19509;43.862;26.176;2022-09-03T08:33:39;1.50;;;1.50;;
33152;SDS011;19509;43.862;26.176;2022-09-03T08:36:11;1.70;;;1.70;;
33152;SDS011;19509;43.862;26.176;2022-09-03T08:38:38;1.37;;;1.37;;
33152;SDS011;19509;43.862;26.176;2022-09-03T08:41:15;1.63;;;1.63;;
33152;SDS011;19509;43.862;26.176;2022-09-03T08:49:11;1.50;;;1.50;;
33152;SDS011;19509;43.862;26.176;2022-09-03T08:51:39;1.60;;;1.60;;
33152;SDS011;19509;43.862;26.176;2022-09-03T08:54:07;1.60;;;1.60;;
33152;SDS011;19509;43.862;26.176;2022-09-03T08:56:36;1.30;;;1.30;;
33152;SDS011;19509;43.862;26.176;2022-09-03T08:59:04;1.50;;;1.50;;
33152;SDS011;19509;43.862;26.176;2022-09-03T09:10:40;1.90;;;1.90;;
33152;SDS011;19509;43.862;26.176;2022-09-03T09:13:25;1.70;;;1.70;;
33152;SDS011;19509;43.862;26.176;2022-09-03T09:18:55;1.67;;;1.60;;
33152;SDS011;19509;43.862;26.176;2022-09-03T09:21:39;1.30;;;1.30;;
33152;SDS011;19509;43.862;26.176;2022-09-03T09:24:23;1.40;;;1.40;;
33152;SDS011;19509;43.862;26.176;2022-09-03T09:27:00;1.10;;;1.10;;
33152;SDS011;19509;43.862;26.176;2022-09-03T09:29:31;1.27;;;1.27;;
33152;SDS011;19509;43.862;26.176;2022-09-03T09:31:59;1.60;;;1.60;;
33152;SDS011;19509;43.862;26.176;2022-09-03T09:34:25;1.40;;;1.40;;
33152;SDS011;19509;43.862;26.176;2022-09-03T09:36:52;1.47;;;1.47;;
33152;SDS011;19509;43.862;26.176;2022-09-03T09:39:20;1.20;;;1.20;;
33152;SDS011;19509;43.862;26.176;2022-09-03T09:41:59;1.50;;;1.50;;
33152;SDS011;19509;43.862;26.176;2022-09-03T09:44:33;1.50;;;1.50;;
33152;SDS011;19509;43.862;26.176;2022-09-03T09:47:03;1.50;;;1.50;;
33152;SDS011;19509;43.862;26.176;2022-09-03T09:52:15;1.30;;;1.20;;
33152;SDS011;19509;43.862;26.176;2022-09-03T09:54:41;1.40;;;1.40;;
33152;SDS011;19509;43.862;26.176;2022-09-03T09:57:13;1.40;;;1.40;;
33152;SDS011;19509;43.862;26.176;2022-09-03T09:59:44;1.50;;;1.50;;
33152;SDS011;19509;43.862;26.176;2022-09-03T10:02:11;1.50;;;1.50;;
33152;SDS011;19509;43.862;26.176;2022-09-03T10:04:40;1.20;;;1.20;;
33152;SDS011;19509;43.862;26.176;2022-09-03T10:10:01;1.30;;;1.30;;
33152;SDS011;19509;43.862;26.176;2022-09-03T10:12:35;1.20;;;1.20;;
33152;SDS011;19509;43.862;26.176;2022-09-03T10:18:35;1.40;;;1.40;;
33152;SDS011;19509;43.862;26.176;2022-09-03T10:23:55;1.20;;;1.20;;
33152;SDS011;19509;43.862;26.176;2022-09-03T10:26:25;1.20;;;1.20;;
33152;SDS011;19509;43.862;26.176;2022-09-03T10:28:56;1.10;;;1.10;;
33152;SDS011;19509;43.862;26.176;2022-09-03T10:36:23;1.10;;;1.10;;
33152;SDS011;19509;43.862;26.176;2022-09-03T10:38:54;1.53;;;1.43;;
33152;SDS011;19509;43.862;26.176;2022-09-03T11:01:09;0.97;;;0.97;;
33152;SDS011;19509;43.862;26.176;2022-09-03T11:06:24;1.10;;;1.10;;
33152;SDS011;19509;43.862;26.176;2022-09-03T11:11:43;1.27;;;1.20;;
33152;SDS011;19509;43.862;26.176;2022-09-03T11:14:15;1.00;;;1.00;;
33152;SDS011;19509;43.862;26.176;2022-09-03T11:16:54;1.10;;;1.10;;
33152;SDS011;19509;43.862;26.176;2022-09-03T11:19:47;0.97;;;0.97;;
33152;SDS011;19509;43.862;26.176;2022-09-03T11:22:20;1.00;;;1.00;;
33152;SDS011;19509;43.862;26.176;2022-09-03T11:24:49;1.10;;;1.10;;
33152;SDS011;19509;43.862;26.176;2022-09-03T11:27:30;1.23;;;1.10;;
33152;SDS011;19509;43.862;26.176;2022-09-03T11:30:10;1.10;;;1.10;;
33152;SDS011;19509;43.862;26.176;2022-09-03T11:35:27;1.20;;;1.20;;
33152;SDS011;19509;43.862;26.176;2022-09-03T11:37:59;1.47;;;1.47;;
33152;SDS011;19509;43.862;26.176;2022-09-03T11:43:31;1.10;;;1.10;;
33152;SDS011;19509;43.862;26.176;2022-09-03T11:51:14;1.10;;;1.10;;
33152;SDS011;19509;43.862;26.176;2022-09-03T11:54:06;1.10;;;1.10;;
33152;SDS011;19509;43.862;26.176;2022-09-03T11:56:37;1.00;;;1.00;;
33152;SDS011;19509;43.862;26.176;2022-09-03T12:01:42;1.07;;;1.07;;
33152;SDS011;19509;43.862;26.176;2022-09-03T12:04:16;1.50;;;1.50;;
33152;SDS011;19509;43.862;26.176;2022-09-03T12:14:58;1.00;;;1.00;;
33152;SDS011;19509;43.862;26.176;2022-09-03T12:20:40;1.20;;;1.20;;
33152;SDS011;19509;43.862;26.176;2022-09-03T12:23:06;1.30;;;1.30;;
33152;SDS011;19509;43.862;26.176;2022-09-03T12:25:41;1.30;;;1.30;;
33152;SDS011;19509;43.862;26.176;2022-09-03T12:28:11;2.90;;;2.80;;
33152;SDS011;19509;43.862;26.176;2022-09-03T12:30:41;1.80;;;1.80;;
33152;SDS011;19509;43.862;26.176;2022-09-03T12:33:07;1.20;;;1.20;;
33152;SDS011;19509;43.862;26.176;2022-09-03T12:35:34;1.37;;;1.37;;
33152;SDS011;19509;43.862;26.176;2022-09-03T12:38:00;2.10;;;2.00;;
33152;SDS011;19509;43.862;26.176;2022-09-03T12:40:26;2.07;;;2.07;;
33152;SDS011;19509;43.862;26.176;2022-09-03T12:42:54;2.00;;;2.00;;
33152;SDS011;19509;43.862;26.176;2022-09-03T12:45:24;1.60;;;1.60;;
33152;SDS011;19509;43.862;26.176;2022-09-03T12:47:50;1.20;;;1.20;;
33152;SDS011;19509;43.862;26.176;2022-09-03T12:50:20;1.23;;;1.23;;
33152;SDS011;19509;43.862;26.176;2022-09-03T13:00:43;2.60;;;1.90;;
33152;SDS011;19509;43.862;26.176;2022-09-03T13:03:21;1.30;;;1.30;;
33152;SDS011;19509;43.862;26.176;2022-09-03T13:05:51;1.30;;;1.30;;
33152;SDS011;19509;43.862;26.176;2022-09-03T13:08:27;1.50;;;1.40;;
33152;SDS011;19509;43.862;26.176;2022-09-03T13:10:55;1.90;;;1.80;;
33152;SDS011;19509;43.862;26.176;2022-09-03T13:13:28;1.60;;;1.60;;
33152;SDS011;19509;43.862;26.176;2022-09-03T13:19:39;1.93;;;1.83;;
33152;SDS011;19509;43.862;26.176;2022-09-03T13:26:56;1.50;;;1.50;;
33152;SDS011;19509;43.862;26.176;2022-09-03T13:32:38;1.60;;;1.60;;
33152;SDS011;19509;43.862;26.176;2022-09-03T13:44:15;1.33;;;1.33;;
33152;SDS011;19509;43.862;26.176;2022-09-03T13:49:56;1.40;;;1.40;;
33152;SDS011;19509;43.862;26.176;2022-09-03T13:52:55;1.90;;;1.80;;
33152;SDS011;19509;43.862;26.176;2022-09-03T13:55:36;2.03;;;2.03;;
33152;SDS011;19509;43.862;26.176;2022-09-03T13:58:10;1.70;;;1.70;;
33152;SDS011;19509;43.862;26.176;2022-09-03T14:00:46;1.70;;;1.70;;
33152;SDS011;19509;43.862;26.176;2022-09-03T14:04:19;2.07;;;2.00;;
33152;SDS011;19509;43.862;26.176;2022-09-03T14:11:46;2.10;;;2.10;;
33152;SDS011;19509;43.862;26.176;2022-09-03T14:19:58;1.43;;;1.43;;
33152;SDS011;19509;43.862;26.176;2022-09-03T14:22:25;1.60;;;1.50;;
33152;SDS011;19509;43.862;26.176;2022-09-03T14:25:04;1.70;;;1.70;;
33152;SDS011;19509;43.862;26.176;2022-09-03T14:27:38;1.50;;;1.50;;
33152;SDS011;19509;43.862;26.176;2022-09-03T14:30:05;1.50;;;1.50;;
33152;SDS011;19509;43.862;26.176;2022-09-03T14:35:35;2.30;;;2.10;;
33152;SDS011;19509;43.862;26.176;2022-09-03T14:41:04;2.03;;;2.03;;
33152;SDS011;19509;43.862;26.176;2022-09-03T14:49:16;2.00;;;1.90;;
33152;SDS011;19509;43.862;26.176;2022-09-03T14:55:21;1.60;;;1.60;;
33152;SDS011;19509;43.862;26.176;2022-09-03T15:00:20;1.60;;;1.60;;
33152;SDS011;19509;43.862;26.176;2022-09-03T15:03:30;1.97;;;1.87;;
33152;SDS011;19509;43.862;26.176;2022-09-03T15:11:54;1.40;;;1.40;;
33152;SDS011;19509;43.862;26.176;2022-09-03T15:17:05;2.00;;;2.00;;
33152;SDS011;19509;43.862;26.176;2022-09-03T15:23:22;1.60;;;1.60;;
33152;SDS011;19509;43.862;26.176;2022-09-03T15:36:58;2.67;;;2.57;;
33152;SDS011;19509;43.862;26.176;2022-09-03T15:39:34;1.80;;;1.70;;
33152;SDS011;19509;43.862;26.176;2022-09-03T15:42:09;2.07;;;1.97;;
33152;SDS011;19509;43.862;26.176;2022-09-03T15:44:48;1.70;;;1.70;;
33152;SDS011;19509;43.862;26.176;2022-09-03T15:55:43;1.40;;;1.40;;
33152;SDS011;19509;43.862;26.176;2022-09-03T15:58:25;1.70;;;1.60;;
33152;SDS011;19509;43.862;26.176;2022-09-03T16:14:49;2.00;;;1.90;;
33152;SDS011;19509;43.862;26.176;2022-09-03T16:17:31;2.10;;;1.80;;
33152;SDS011;19509;43.862;26.176;2022-09-03T16:22:39;2.00;;;1.90;;
33152;SDS011;19509;43.862;26.176;2022-09-03T16:28:16;1.87;;;1.77;;
33152;SDS011;19509;43.862;26.176;2022-09-03T16:37:04;1.90;;;1.80;;
33152;SDS011;19509;43.862;26.176;2022-09-03T16:47:47;2.20;;;1.73;;
33152;SDS011;19509;43.862;26.176;2022-09-03T16:56:11;1.90;;;1.80;;
33152;SDS011;19509;43.862;26.176;2022-09-03T17:04:52;2.00;;;1.90;;
33152;SDS011;19509;43.862;26.176;2022-09-03T17:10:20;1.90;;;1.80;;
33152;SDS011;19509;43.862;26.176;2022-09-03T17:29:59;1.60;;;1.50;;
33152;SDS011;19509;43.862;26.176;2022-09-03T17:35:31;1.60;;;1.60;;
33152;SDS011;19509;43.862;26.176;2022-09-03T17:46:17;1.70;;;1.60;;
33152;SDS011;19509;43.862;26.176;2022-09-03T17:48:59;1.70;;;1.60;;
33152;SDS011;19509;43.862;26.176;2022-09-03T17:51:43;1.97;;;1.87;;
33152;SDS011;19509;43.862;26.176;2022-09-03T17:57:18;1.83;;;1.73;;
33152;SDS011;19509;43.862;26.176;2022-09-03T17:59:56;2.10;;;1.70;;
33152;SDS011;19509;43.862;26.176;2022-09-03T18:02:42;1.90;;;1.90;;
33152;SDS011;19509;43.862;26.176;2022-09-03T18:08:35;1.80;;;1.80;;
33152;SDS011;19509;43.862;26.176;2022-09-03T18:11:08;1.70;;;1.60;;
33152;SDS011;19509;43.862;26.176;2022-09-03T18:13:44;2.03;;;1.70;;
33152;SDS011;19509;43.862;26.176;2022-09-03T18:22:25;1.83;;;1.83;;
33152;SDS011;19509;43.862;26.176;2022-09-03T18:25:14;1.77;;;1.70;;
33152;SDS011;19509;43.862;26.176;2022-09-03T18:28:00;1.53;;;1.53;;
33152;SDS011;19509;43.862;26.176;2022-09-03T18:30:50;1.40;;;1.40;;
33152;SDS011;19509;43.862;26.176;2022-09-03T18:33:34;1.57;;;1.50;;
33152;SDS011;19509;43.862;26.176;2022-09-03T18:36:17;1.80;;;1.60;;
33152;SDS011;19509;43.862;26.176;2022-09-03T18:39:10;1.87;;;1.80;;
33152;SDS011;19509;43.862;26.176;2022-09-03T18:42:16;2.00;;;2.00;;
33152;SDS011;19509;43.862;26.176;2022-09-03T18:45:12;3.60;;;1.70;;
33152;SDS011;19509;43.862;26.176;2022-09-03T18:51:06;1.60;;;1.60;;
33152;SDS011;19509;43.862;26.176;2022-09-03T18:57:22;1.90;;;1.80;;
33152;SDS011;19509;43.862;26.176;2022-09-03T19:00:12;2.70;;;1.90;;
33152;SDS011;19509;43.862;26.176;2022-09-03T19:05:58;1.40;;;1.30;;
33152;SDS011;19509;43.862;26.176;2022-09-03T19:11:57;1.60;;;1.60;;
33152;SDS011;19509;43.862;26.176;2022-09-03T19:14:58;1.70;;;1.63;;
33152;SDS011;19509;43.862;26.176;2022-09-03T19:24:07;1.47;;;1.47;;
33152;SDS011;19509;43.862;26.176;2022-09-03T19:27:03;1.60;;;1.60;;
33152;SDS011;19509;43.862;26.176;2022-09-03T19:48:40;1.30;;;1.30;;
33152;SDS011;19509;43.862;26.176;2022-09-03T19:51:39;1.43;;;1.43;;
33152;SDS011;19509;43.862;26.176;2022-09-03T19:54:34;1.50;;;1.50;;
33152;SDS011;19509;43.862;26.176;2022-09-03T19:57:19;2.03;;;1.93;;
33152;SDS011;19509;43.862;26.176;2022-09-03T20:00:04;1.70;;;1.60;;
33152;SDS011;19509;43.862;26.176;2022-09-03T20:02:49;1.70;;;1.60;;
33152;SDS011;19509;43.862;26.176;2022-09-03T20:05:33;1.67;;;1.60;;
33152;SDS011;19509;43.862;26.176;2022-09-03T20:08:19;1.90;;;1.90;;
33152;SDS011;19509;43.862;26.176;2022-09-03T20:11:18;1.50;;;1.50;;
33152;SDS011;19509;43.862;26.176;2022-09-03T20:13:45;1.70;;;1.70;;
33152;SDS011;19509;43.862;26.176;2022-09-03T20:19:23;2.00;;;1.90;;
33152;SDS011;19509;43.862;26.176;2022-09-03T20:30:05;1.70;;;1.70;;
33152;SDS011;19509;43.862;26.176;2022-09-03T20:32:43;1.60;;;1.60;;
33152;SDS011;19509;43.862;26.176;2022-09-03T20:36:29;1.80;;;1.70;;
33152;SDS011;19509;43.862;26.176;2022-09-03T20:38:56;1.77;;;1.77;;
33152;SDS011;19509;43.862;26.176;2022-09-03T20:50:01;1.77;;;1.77;;
33152;SDS011;19509;43.862;26.176;2022-09-03T20:52:53;1.80;;;1.80;;
33152;SDS011;19509;43.862;26.176;2022-09-03T20:55:35;1.80;;;1.70;;
33152;SDS011;19509;43.862;26.176;2022-09-03T21:00:58;1.90;;;1.90;;
33152;SDS011;19509;43.862;26.176;2022-09-03T21:06:54;2.23;;;1.87;;
33152;SDS011;19509;43.862;26.176;2022-09-03T21:09:38;1.67;;;1.53;;
33152;SDS011;19509;43.862;26.176;2022-09-03T21:12:35;1.60;;;1.60;;
33152;SDS011;19509;43.862;26.176;2022-09-03T21:23:18;1.87;;;1.87;;
33152;SDS011;19509;43.862;26.176;2022-09-03T21:25:51;1.70;;;1.70;;
33152;SDS011;19509;43.862;26.176;2022-09-03T21:28:28;1.80;;;1.80;;
33152;SDS011;19509;43.862;26.176;2022-09-03T21:31:04;1.60;;;1.60;;
33152;SDS011;19509;43.862;26.176;2022-09-03T21:33:38;1.70;;;1.70;;
33152;SDS011;19509;43.862;26.176;2022-09-03T21:38:33;1.80;;;1.70;;
33152;SDS011;19509;43.862;26.176;2022-09-03T21:41:16;1.50;;;1.50;;
33152;SDS011;19509;43.862;26.176;2022-09-03T21:43:57;2.03;;;1.90;;
33152;SDS011;19509;43.862;26.176;2022-09-03T21:46:26;1.63;;;1.63;;